Alto, TX (75925)

4:34 AM CST on February 11, 2016 (GMT -0600)
Rural Alto | | Change Station
CLOSE
Current Station
Personal Weather Station
Location: Texas, TX
Elevation: 354 ft
Nearby Weather Stations

Elev 354 ft 31.52 °N, 95.06 °W | Updated 5 seconds ago

Clear
Clear
53.3 °F
Feels Like 53.3 °F
N
2.0
Wind Variable Wind from SSW
Gusts 6.0 mph

Today
High -- | Low -- °F
--% Chance of Precip.
Yesterday
High -- | Low -- °F
Precip. -- in
Pressure 30.10 in
Visibility 10.0 miles
Clouds Clear
Dew Point 41 °F
Humidity 63%
Rainfall 0.00 in
Snow Depth Not available.
7:06 AM 6:03 PM
Waxing Crescent, 11% visible
METAR KJSO 111015Z AUTO 22009G14KT 10SM CLR 12/03 A3010 RMK AO2 T01240036
Pressure 30.10 in
Visibility 10.0 miles
Clouds Clear
Dew Point 41 °F
Humidity 63%
Rainfall 0.00 in
Snow Depth Not available.
7:06 AM 6:03 PM
Waxing Crescent, 11% visible
METAR KJSO 111015Z AUTO 22009G14KT 10SM CLR 12/03 A3010 RMK AO2 T01240036

10-Day Weather Forecast

Almanac

Astronomy

Feb. 11, 2016 Rise Set
Actual Time
Civil Twilight
Nautical Twilight
Astronomical Twilight
Moon
Length of Visible Light
Length of Day
Tomorrow will be .
, % of the Moon is Illuminated

Today's Extremes

State Highs State Lows

Community

WunderPhotos

Upload Photos

1,892,030 photos uploaded!

WunderBlog® & News

Nearby

Air Quality

  Air Quality AQ Index Pollutant
Not available.

Snow Depth

Station Depth Elevation

Earthquake Activity

City Distance Mag. Time & Date
Minimum magnitude displayed is 2.5.

Coastal Water Temperatures

Place Temperature

Stations

Nearby Weather Stations

Station Location Temp. Windchill Dew Point Humidity Wind Precip. Elev Updated Type
                   

Watches & Warnings

There are currently no watches in effect.